Time;durP1;ratioP1;P1;durP2;ratioP2;P2;SDS_P1;SDS_P2;PMS_P1;PMS_P2;Temp;Humidity;BMP_temperature;BMP_pressure;BME280_temperature;BME280_humidity;BME280_pressure;Samples;Min_cycle;Max_cycle;Signal;HPM_P1;HPM_P2
2023/01/29 00:01:10;;;;;;;38.60;33.30;;;;;;;-1.39;83.87;102953.75;5080157;28;20107;-57
2023/01/29 00:03:35;;;;;;;39.10;34.10;;;;;;;-1.44;85.03;102972.75;5094417;28;20040;-57
2023/01/29 00:06:06;;;;;;;39.37;30.80;;;;;;;-1.32;84.11;102970.44;5092176;28;20112;-57
2023/01/29 00:08:33;;;;;;;40.40;35.73;;;;;;;-1.54;84.73;102947.34;5093146;28;20123;-57
2023/01/29 00:11:04;;;;;;;38.37;32.73;;;;;;;-1.25;85.11;102956.63;5090712;28;20109;-57
2023/01/29 00:13:30;;;;;;;39.00;34.23;;;;;;;-1.27;85.07;102958.34;5075378;28;20478;-58
2023/01/29 00:15:57;;;;;;;39.23;32.10;;;;;;;-1.17;84.55;102951.59;5076305;28;20125;-57
2023/01/29 00:18:23;;;;;;;38.57;34.40;;;;;;;-1.23;84.81;102952.34;5093742;28;20419;-57
2023/01/29 00:20:48;;;;;;;39.33;33.70;;;;;;;-1.24;84.48;102949.69;5092789;28;20040;-57
2023/01/29 00:23:14;;;;;;;38.77;33.60;;;;;;;-1.21;84.83;102939.31;5093941;28;20032;-57
2023/01/29 00:25:41;;;;;;;37.23;32.37;;;;;;;-1.11;85.21;102940.38;5092621;28;20073;-58
2023/01/29 00:28:07;;;;;;;37.73;33.63;;;;;;;-1.31;85.65;102916.50;5088761;28;20035;-57
2023/01/29 00:30:32;;;;;;;39.63;31.43;;;;;;;-1.08;85.38;102927.38;5038970;28;20036;-57
2023/01/29 00:32:58;;;;;;;40.50;33.97;;;;;;;-1.11;85.89;102930.81;5073766;28;20024;-57
2023/01/29 00:35:23;;;;;;;38.03;32.23;;;;;;;-1.09;85.96;102939.53;5055797;28;20028;-58
2023/01/29 00:37:49;;;;;;;39.13;34.50;;;;;;;-1.15;85.19;102931.59;5073661;28;20415;-57
2023/01/29 00:40:14;;;;;;;37.13;32.80;;;;;;;-1.05;85.34;102930.06;5062068;28;20474;-57
2023/01/29 00:45:23;;;;;;;35.07;31.17;;;;;;;-1.05;84.44;102928.31;5086379;28;20124;-57
2023/01/29 00:47:51;;;;;;;36.20;32.17;;;;;;;-1.06;85.22;102916.13;5079718;28;20103;-57
2023/01/29 00:50:17;;;;;;;37.37;33.27;;;;;;;-1.05;85.60;102911.78;5093443;28;20464;-57
2023/01/29 00:52:42;;;;;;;40.90;35.40;;;;;;;-1.06;85.10;102907.38;5093574;28;20104;-57
2023/01/29 00:55:09;;;;;;;38.87;33.43;;;;;;;-1.22;85.02;102895.78;5093372;28;20020;-57
2023/01/29 00:57:38;;;;;;;38.17;33.00;;;;;;;-1.13;84.85;102900.31;5091865;28;20081;-57
2023/01/29 01:00:07;;;;;;;37.13;33.10;;;;;;;-1.17;85.66;102896.75;5087878;28;20365;-57
2023/01/29 01:05:18;;;;;;;41.33;34.50;;;;;;;-1.24;85.11;102879.22;5093351;28;20036;-57
2023/01/29 01:07:49;;;;;;;39.27;34.07;;;;;;;-1.20;85.38;102883.66;5088422;28;20427;-57
2023/01/29 01:10:20;;;;;;;40.40;34.67;;;;;;;-1.21;86.27;102892.31;5063437;28;20092;-57
2023/01/29 01:13:06;;;;;;;38.47;34.33;;;;;;;-1.20;86.55;102900.19;5077902;28;20056;-57
2023/01/29 01:15:37;;;;;;;37.43;32.90;;;;;;;-1.30;86.31;102900.84;5072576;28;20029;-57
2023/01/29 01:18:03;;;;;;;39.53;34.90;;;;;;;-1.35;85.76;102886.84;5088657;28;20492;-57
2023/01/29 01:20:31;;;;;;;39.00;34.67;;;;;;;-1.40;86.38;102898.94;5059009;28;20024;-57
2023/01/29 01:22:57;;;;;;;43.23;33.63;;;;;;;-1.33;86.55;102911.22;5075964;28;20025;-58
2023/01/29 01:25:24;;;;;;;39.20;34.77;;;;;;;-1.40;86.47;102904.16;5092470;28;20024;-58
2023/01/29 01:27:57;;;;;;;41.63;33.03;;;;;;;-1.28;86.00;102896.53;5091734;28;20020;-57
2023/01/29 01:30:24;;;;;;;38.57;33.73;;;;;;;-1.32;86.56;102901.66;5092743;28;20487;-58
2023/01/29 01:32:49;;;;;;;41.80;35.27;;;;;;;-1.27;86.56;102903.50;5092707;28;20027;-57
2023/01/29 01:35:15;;;;;;;39.87;35.40;;;;;;;-1.28;85.95;102903.50;5092758;28;20027;-57
2023/01/29 01:37:41;;;;;;;42.57;36.07;;;;;;;-1.39;86.45;102904.16;5074796;28;20482;-57
2023/01/29 01:40:16;;;;;;;42.13;35.60;;;;;;;-1.32;86.85;102901.66;5071960;28;20020;-57
2023/01/29 01:42:42;;;;;;;40.73;36.17;;;;;;;-1.30;86.24;102903.47;5054401;28;20033;-57
2023/01/29 01:45:23;;;;;;;42.00;35.93;;;;;;;-1.29;86.38;102905.25;5082164;28;20020;-57
2023/01/29 01:47:51;;;;;;;;;;;;;;;-1.12;85.43;102902.91;5091681;28;20590;-57
2023/01/29 01:50:19;;;;;;;43.23;35.83;;;;;;;-1.33;85.83;102892.97;5092405;28;20375;-57
2023/01/29 01:52:50;;;;;;;46.83;37.40;;;;;;;-1.38;86.66;102900.72;5093671;28;20027;-57
2023/01/29 01:55:23;;;;;;;45.30;36.63;;;;;;;-1.40;86.09;102893.72;5090770;28;20019;-57
2023/01/29 01:57:54;;;;;;;44.40;35.73;;;;;;;-1.45;86.30;102905.78;5095545;28;20038;-57
2023/01/29 02:00:24;;;;;;;44.13;36.73;;;;;;;-1.42;86.75;102913.66;5088163;28;20108;-57
2023/01/29 02:11:37;;;;;;;45.97;39.50;;;;;;;-1.54;86.78;102914.31;5074929;28;20114;-57
2023/01/29 02:14:05;;;;;;;45.13;36.40;;;;;;;-1.57;86.80;102906.41;5071249;28;20495;-57
2023/01/29 02:16:33;;;;;;;49.10;41.00;;;;;;;-1.56;86.79;102908.16;5037563;28;20017;-57
2023/01/29 02:18:59;;;;;;;46.50;38.63;;;;;;;-1.51;86.66;102909.13;5071526;28;20131;-57
2023/01/29 02:21:35;;;;;;;47.63;39.70;;;;;;;-1.52;86.57;102914.34;5082138;28;20487;-57
2023/01/29 02:24:51;;;;;;;47.33;38.47;;;;;;;-1.45;86.56;102927.53;5091590;28;20024;-57
2023/01/29 02:27:32;;;;;;;47.77;39.77;;;;;;;-1.47;86.52;102923.13;5059563;28;20041;-57
2023/01/29 02:30:21;;;;;;;46.20;38.10;;;;;;;-1.48;87.08;102923.97;5070848;28;20028;-57
2023/01/29 02:33:08;;;;;;;51.10;41.33;;;;;;;-1.53;86.54;102923.91;5071708;28;20029;-57
2023/01/29 02:36:12;;;;;;;48.03;37.57;;;;;;;-1.48;86.90;102922.25;5053590;28;20302;-57
2023/01/29 02:38:59;;;;;;;52.80;42.07;;;;;;;-1.51;87.61;102914.34;5042655;28;20403;-57
2023/01/29 02:41:46;;;;;;;53.80;39.03;;;;;;;-1.42;88.11;102924.97;5071705;28;20404;-57
2023/01/29 02:44:22;;;;;;;47.97;41.00;;;;;;;-1.45;87.51;102929.25;5053604;28;20052;-57
2023/01/29 02:47:04;;;;;;;48.57;39.23;;;;;;;-1.41;87.43;102918.94;5071561;28;20327;-57
2023/01/29 02:49:36;;;;;;;50.97;41.60;;;;;;;-1.42;87.57;102917.16;5053536;28;20090;-57
2023/01/29 02:52:08;;;;;;;49.57;41.80;;;;;;;-1.40;87.68;102911.97;5069003;28;20039;-57
2023/01/29 02:54:51;;;;;;;49.03;40.97;;;;;;;-1.39;87.64;102900.69;5073476;28;20464;-57
2023/01/29 02:57:28;;;;;;;51.17;39.00;;;;;;;-1.38;88.11;102892.88;5091621;28;20063;-57
2023/01/29 03:00:15;;;;;;;49.67;39.40;;;;;;;-1.32;87.64;102901.66;5069123;28;20028;-57
2023/01/29 03:02:51;;;;;;;51.50;40.37;;;;;;;-1.35;88.16;102892.06;5053339;28;20024;-57
2023/01/29 03:05:26;;;;;;;47.03;40.63;;;;;;;-1.33;88.12;102906.00;5071389;28;20039;-57
2023/01/29 03:07:59;;;;;;;50.67;40.63;;;;;;;-1.32;88.62;102897.34;5071148;28;20032;-57
2023/01/29 03:10:38;;;;;;;49.13;40.63;;;;;;;-1.23;88.31;102905.34;5071443;28;20082;-57
2023/01/29 03:13:28;;;;;;;47.13;36.77;;;;;;;-1.20;88.99;102907.16;5070809;28;20033;-57
2023/01/29 03:16:07;;;;;;;49.88;41.90;;;;;;;-1.24;88.20;102906.19;5046371;28;20031;-57
2023/01/29 03:18:42;;;;;;;48.67;36.75;;;;;;;-1.19;88.41;102888.00;5055462;28;20052;-58
2023/01/29 03:32:18;;;;;;;46.27;39.47;;;;;;;-1.08;87.97;102899.53;5091634;28;20526;-57
2023/01/29 03:34:50;;;;;;;46.37;40.30;;;;;;;-1.08;87.92;102893.44;5089852;28;20020;-57
2023/01/29 03:37:24;;;;;;;50.20;40.13;;;;;;;-1.06;88.26;102887.41;5058740;28;20016;-57
2023/01/29 03:39:49;;;;;;;46.30;40.20;;;;;;;-1.02;87.75;102888.31;5091243;28;20023;-57
2023/01/29 03:42:46;;;;;;;46.67;38.97;;;;;;;-0.96;88.42;102893.66;5093141;28;20024;-57
2023/01/29 03:45:33;;;;;;;44.40;37.33;;;;;;;-0.94;88.49;102891.97;5093032;28;20031;-57
2023/01/29 03:48:04;;;;;;;44.50;36.70;;;;;;;-0.94;88.42;102892.84;5094778;28;20102;-57
2023/01/29 03:50:37;;;;;;;45.73;37.43;;;;;;;-0.84;87.99;102895.59;5093112;28;20111;-57
2023/01/29 03:53:17;;;;;;;45.63;38.60;;;;;;;-0.84;88.25;102887.75;5082410;28;20008;-57
2023/01/29 03:56:01;;;;;;;44.67;38.33;;;;;;;-0.81;88.19;102877.38;5087507;28;20487;-57
2023/01/29 03:58:49;;;;;;;41.77;36.20;;;;;;;-0.87;88.31;102875.53;5094217;28;20375;-57
2023/01/29 04:01:24;;;;;;;42.93;37.03;;;;;;;-0.80;87.71;102881.72;5094438;28;20502;-57
2023/01/29 04:04:00;;;;;;;43.57;37.63;;;;;;;-0.82;87.83;102879.09;5094434;28;20015;-57
2023/01/29 04:06:33;;;;;;;46.17;39.00;;;;;;;-0.86;87.97;102872.06;5076262;28;20518;-57
2023/01/29 04:08:58;;;;;;;43.77;37.97;;;;;;;-0.83;88.50;102869.50;5094344;28;20019;-58
2023/01/29 04:11:28;;;;;;;44.63;36.77;;;;;;;-0.81;88.71;102870.41;5093793;28;20154;-57
2023/01/29 04:13:55;;;;;;;44.58;37.50;;;;;;;-0.79;87.58;102866.09;5055364;28;20044;-57
2023/01/29 04:16:36;;;;;;;48.63;38.97;;;;;;;-0.74;88.30;102860.94;5073820;28;20028;-57
2023/01/29 04:19:01;;;;;;;47.17;38.97;;;;;;;-0.80;88.23;102851.25;5074777;28;20127;-57
2023/01/29 04:21:30;;;;;;;45.17;38.17;;;;;;;-0.83;88.22;102853.81;5076644;28;20115;-58
2023/01/29 04:23:56;;;;;;;45.63;38.10;;;;;;;-0.78;87.65;102862.63;5069090;28;20024;-57
2023/01/29 04:26:55;;;;;;;47.17;39.53;;;;;;;-0.73;88.40;102849.66;5074378;28;20021;-57
2023/01/29 04:29:38;;;;;;;48.65;37.80;;;;;;;-0.74;88.55;102851.34;5065999;28;20032;-57
2023/01/29 04:32:15;;;;;;;49.83;41.67;;;;;;;-0.74;88.25;102856.56;5071681;28;20161;-58
2023/01/29 04:34:46;;;;;;;48.70;41.23;;;;;;;-0.74;88.14;102860.94;5092568;28;20024;-57
2023/01/29 04:37:24;;;;;;;50.27;41.47;;;;;;;-0.78;88.39;102846.06;5086678;28;20035;-57
2023/01/29 04:40:11;;;;;;;49.10;39.27;;;;;;;-0.67;88.32;102854.09;5080847;28;20100;-57
2023/01/29 04:42:41;;;;;;;52.43;41.93;;;;;;;-0.63;88.17;102848.91;5066098;28;20032;-57
2023/01/29 04:45:35;;;;;;;48.83;40.83;;;;;;;-0.62;88.43;102848.06;5072773;28;20020;-57
2023/01/29 04:48:20;;;;;;;49.47;40.37;;;;;;;-0.59;88.29;102836.78;5055505;28;20517;-57
2023/01/29 04:51:11;;;;;;;51.37;43.07;;;;;;;-0.57;87.97;102840.28;5077838;28;20020;-57
2023/01/29 04:53:56;;;;;;;51.07;41.03;;;;;;;-0.52;88.52;102828.19;5080650;28;20460;-57
2023/01/29 04:56:28;;;;;;;54.73;43.33;;;;;;;-0.53;87.79;102823.78;5055107;28;20012;-57
2023/01/29 04:59:16;;;;;;;53.77;43.07;;;;;;;-0.55;88.84;102802.00;5070953;28;20028;-57
2023/01/29 05:01:43;;;;;;;51.60;42.67;;;;;;;-0.52;88.02;102813.38;5074531;28;20024;-57
2023/01/29 05:04:12;;;;;;;53.33;42.13;;;;;;;-0.57;88.63;102801.97;5092381;28;20085;-57
2023/01/29 05:06:38;;;;;;;52.33;42.50;;;;;;;-0.59;88.11;102795.88;5092342;28;20126;-58
2023/01/29 05:09:04;;;;;;;49.70;42.00;;;;;;;-0.55;88.73;102808.09;5093341;28;20656;-57
2023/01/29 05:11:31;;;;;;;53.70;42.87;;;;;;;-0.55;89.14;102810.72;5074254;28;20054;-57
2023/01/29 05:14:00;;;;;;;53.00;43.13;;;;;;;-0.52;88.08;102794.22;5079796;28;20077;-57
2023/01/29 05:16:40;;;;;;;53.33;42.63;;;;;;;-0.50;88.97;102802.94;5084223;28;20472;-57
2023/01/29 05:19:10;;;;;;;50.67;41.80;;;;;;;-0.52;88.22;102791.59;5092315;28;20252;-57
2023/01/29 05:21:37;;;;;;;52.88;41.70;;;;;;;-0.48;88.74;102802.09;5077020;28;20024;-57
2023/01/29 05:24:10;;;;;;;51.27;41.53;;;;;;;-0.51;88.70;102796.84;5093622;28;20120;-57
2023/01/29 05:29:20;;;;;;;50.10;40.73;;;;;;;-0.48;88.81;102791.66;5092304;28;20043;-57
2023/01/29 05:31:46;;;;;;;51.57;41.40;;;;;;;-0.44;89.08;102784.75;5092147;28;20025;-57
2023/01/29 05:34:11;;;;;;;57.03;42.80;;;;;;;-0.54;89.25;102765.44;5086644;28;20031;-57
2023/01/29 05:36:36;;;;;;;50.87;41.70;;;;;;;-0.42;89.10;102784.75;5072256;28;20020;-57
2023/01/29 05:39:04;;;;;;;54.83;42.57;;;;;;;-0.45;88.73;102772.53;5054375;28;20177;-57
2023/01/29 05:41:29;;;;;;;54.90;43.53;;;;;;;-0.45;88.60;102782.97;5090451;28;20028;-57
2023/01/29 05:43:55;;;;;;;53.23;43.90;;;;;;;-0.43;88.76;102788.25;5092270;28;20069;-57
2023/01/29 05:46:20;;;;;;;54.60;44.13;;;;;;;-0.44;89.48;102791.69;5092231;28;20489;-57
2023/01/29 05:48:45;;;;;;;54.53;44.40;;;;;;;-0.39;89.69;102785.66;5092391;28;20027;-57
2023/01/29 05:51:11;;;;;;;54.23;42.73;;;;;;;-0.43;89.36;102781.28;5087594;28;20028;-57
2023/01/29 05:53:36;;;;;;;54.77;44.10;;;;;;;-0.37;89.13;102790.94;5072011;28;20031;-57
2023/01/29 05:56:03;;;;;;;55.40;44.37;;;;;;;-0.38;89.07;102794.38;5092153;28;20090;-57
2023/01/29 05:58:30;;;;;;;60.07;46.80;;;;;;;-0.36;88.90;102798.78;5092056;28;20048;-57
2023/01/29 06:00:56;;;;;;;53.20;43.00;;;;;;;-0.35;89.06;102803.16;5074012;28;20095;-57
2023/01/29 06:03:21;;;;;;;58.50;46.50;;;;;;;-0.29;89.29;102797.16;5091370;28;20116;-57
2023/01/29 06:05:46;;;;;;;58.03;46.70;;;;;;;-0.30;89.11;102792.75;5073912;28;20091;-61
2023/01/29 06:08:12;;;;;;;59.73;45.60;;;;;;;-0.31;88.76;102801.47;5073480;28;20475;-57
2023/01/29 06:10:37;;;;;;;59.10;47.60;;;;;;;-0.30;88.90;102800.59;5074087;28;20048;-57
2023/01/29 06:13:03;;;;;;;55.13;44.93;;;;;;;-0.29;89.27;102800.63;5091596;28;20395;-57
2023/01/29 06:15:28;;;;;;;58.57;47.97;;;;;;;-0.26;89.16;102797.19;5091782;28;20016;-58
2023/01/29 06:17:54;;;;;;;57.50;47.37;;;;;;;-0.22;89.17;102805.94;5073882;28;20089;-58
2023/01/29 06:20:20;;;;;;;58.57;46.63;;;;;;;-0.21;88.80;102811.19;5091966;28;20023;-57
2023/01/29 06:22:45;;;;;;;56.47;46.43;;;;;;;-0.19;88.86;102821.69;5091925;28;20027;-57
2023/01/29 06:25:10;;;;;;;58.27;47.20;;;;;;;-0.21;89.11;102823.38;5074211;28;20399;-57
2023/01/29 06:27:36;;;;;;;57.83;46.93;;;;;;;-0.18;89.18;102826.03;5076606;28;20025;-57
2023/01/29 06:30:03;;;;;;;56.07;47.60;;;;;;;-0.13;88.99;102830.47;5053130;28;20016;-57
2023/01/29 06:32:28;;;;;;;56.60;46.50;;;;;;;-0.13;88.60;102820.00;5089302;28;20097;-57
2023/01/29 06:34:56;;;;;;;60.33;47.77;;;;;;;-0.13;88.17;102808.69;5088151;28;20476;-57
2023/01/29 06:37:24;;;;;;;59.07;47.13;;;;;;;-0.15;88.14;102787.72;5089176;28;20023;-57
2023/01/29 06:39:49;;;;;;;58.67;47.60;;;;;;;-0.16;88.84;102775.53;5073736;28;20028;-57
2023/01/29 06:42:15;;;;;;;58.33;47.83;;;;;;;-0.14;88.87;102780.78;5085505;28;20125;-57
2023/01/29 06:44:40;;;;;;;59.23;46.03;;;;;;;-0.25;88.75;102762.34;5052715;28;20100;-57
2023/01/29 06:47:06;;;;;;;57.70;47.87;;;;;;;-0.16;88.91;102778.13;5071493;28;20689;-57
2023/01/29 06:49:31;;;;;;;59.20;47.30;;;;;;;-0.17;88.79;102786.84;5075730;28;20101;-57
2023/01/29 06:51:56;;;;;;;56.90;46.47;;;;;;;-0.18;89.22;102781.59;5090646;28;20024;-57
2023/01/29 06:54:24;;;;;;;57.53;46.10;;;;;;;-0.16;88.68;102782.50;5094291;28;20024;-57
2023/01/29 06:56:51;;;;;;;58.33;47.10;;;;;;;-0.19;88.86;102769.38;5091592;28;20456;-57
2023/01/29 06:59:16;;;;;;;58.03;45.87;;;;;;;-0.12;88.58;102772.09;5085030;28;20114;-57
2023/01/29 07:01:43;;;;;;;56.40;45.60;;;;;;;-0.11;88.64;102763.38;5055857;28;20088;-57
2023/01/29 07:04:09;;;;;;;59.23;46.60;;;;;;;-0.06;88.71;102763.41;5071310;28;20024;-57
2023/01/29 07:06:34;;;;;;;65.27;47.70;;;;;;;-0.20;88.54;102746.72;5071279;28;20036;-57
2023/01/29 07:09:00;;;;;;;57.70;47.10;;;;;;;-0.15;88.82;102756.34;5071380;28;20021;-57
2023/01/29 07:11:25;;;;;;;61.27;47.43;;;;;;;-0.09;88.81;102766.00;5071581;28;20021;-57
2023/01/29 07:13:50;;;;;;;59.67;45.77;;;;;;;-0.09;88.84;102761.69;5091209;28;20357;-57
2023/01/29 07:16:17;;;;;;;61.03;46.80;;;;;;;-0.07;88.83;102777.38;5084562;28;20024;-57
2023/01/29 07:18:43;;;;;;;58.00;46.33;;;;;;;-0.07;88.88;102770.41;5053334;28;20037;-57
2023/01/29 07:21:08;;;;;;;58.10;47.53;;;;;;;-0.07;88.74;102775.63;5054964;28;20122;-57
2023/01/29 07:23:34;;;;;;;59.63;47.27;;;;;;;-0.02;88.53;102780.94;5054827;28;20064;-57
2023/01/29 07:26:04;;;;;;;57.23;46.80;;;;;;;-0.03;88.16;102779.16;5054772;28;20025;-57
2023/01/29 07:28:29;;;;;;;58.92;47.22;;;;;;;-0.08;88.21;102773.00;5054346;28;20445;-57
2023/01/29 07:30:58;;;;;;;61.20;48.20;;;;;;;-0.05;88.59;102783.50;5054960;28;20029;-57
2023/01/29 07:33:24;;;;;;;58.43;47.83;;;;;;;-0.03;87.95;102780.06;5055208;28;20051;-57
2023/01/29 07:35:52;;;;;;;59.93;45.93;;;;;;;-0.01;88.59;102780.94;5054508;28;20441;-57
2023/01/29 07:38:17;;;;;;;59.63;46.57;;;;;;;-0.08;87.86;102767.78;5054773;28;20032;-57
2023/01/29 07:40:43;;;;;;;56.73;45.17;;;;;;;-0.05;88.49;102768.69;5053210;28;20025;-57
2023/01/29 07:43:09;;;;;;;58.43;47.10;;;;;;;-0.05;88.64;102766.06;5052554;28;20029;-58
2023/01/29 07:45:36;;;;;;;57.37;45.80;;;;;;;0.02;88.75;102758.28;5054235;28;20358;-57
2023/01/29 07:48:03;;;;;;;58.43;46.73;;;;;;;0.05;88.14;102764.44;5055006;28;20021;-57
2023/01/29 07:50:30;;;;;;;55.60;44.77;;;;;;;0.05;88.86;102771.41;5066733;28;20020;-58
2023/01/29 07:52:56;;;;;;;56.83;46.27;;;;;;;0.06;88.82;102768.81;5053186;28;20032;-57
2023/01/29 07:55:21;;;;;;;59.97;46.40;;;;;;;0.05;88.17;102776.63;5054006;28;20100;-57
2023/01/29 07:57:53;;;;;;;55.80;45.73;;;;;;;0.03;87.65;102776.63;5054097;28;20370;-57
2023/01/29 08:00:19;;;;;;;57.87;45.07;;;;;;;0.04;88.53;102772.28;5063379;28;20027;-57
2023/01/29 08:02:44;;;;;;;59.57;45.93;;;;;;;0.05;88.12;102768.78;5071308;28;20024;-57
2023/01/29 08:05:09;;;;;;;55.77;45.23;;;;;;;0.06;87.73;102760.06;5061777;28;20020;-58
2023/01/29 08:07:37;;;;;;;55.13;45.30;;;;;;;0.05;87.99;102764.44;5077400;28;20032;-57
2023/01/29 08:10:03;;;;;;;54.63;46.17;;;;;;;0.06;88.30;102768.81;5078015;28;20033;-57
2023/01/29 08:12:28;;;;;;;57.00;45.63;;;;;;;0.03;88.28;102755.72;5073504;28;20570;-57
2023/01/29 08:14:54;;;;;;;56.40;45.90;;;;;;;0.08;88.32;102766.22;5073635;28;20020;-57
2023/01/29 08:17:21;;;;;;;58.40;45.90;;;;;;;0.08;88.02;102759.22;5073915;28;20016;-57
2023/01/29 08:19:47;;;;;;;56.13;45.70;;;;;;;0.08;87.80;102759.22;5073203;28;20048;-57
2023/01/29 08:22:14;;;;;;;56.20;44.53;;;;;;;0.09;87.96;102767.94;5096235;28;20096;-57
2023/01/29 08:24:39;;;;;;;55.37;44.17;;;;;;;0.15;88.27;102762.81;5076402;28;20024;-58
2023/01/29 08:27:05;;;;;;;57.07;44.40;;;;;;;0.13;88.02;102761.91;5085909;28;20369;-57
2023/01/29 08:29:30;;;;;;;59.57;46.00;;;;;;;0.12;87.81;102755.81;5093252;28;20392;-57
2023/01/29 08:31:55;;;;;;;55.33;45.40;;;;;;;0.13;88.26;102754.94;5094545;28;20028;-57
2023/01/29 08:34:21;;;;;;;54.23;43.67;;;;;;;0.11;87.98;102745.31;5078913;28;20193;-57
2023/01/29 08:36:46;;;;;;;55.53;44.73;;;;;;;0.15;88.13;102749.75;5093556;28;20028;-57
2023/01/29 08:39:12;;;;;;;57.73;46.07;;;;;;;0.13;88.06;102752.31;5079414;28;20085;-57
2023/01/29 08:41:37;;;;;;;59.60;45.07;;;;;;;0.13;87.90;102754.94;5089198;28;20082;-57
2023/01/29 08:44:03;;;;;;;55.63;43.73;;;;;;;0.20;87.83;102746.28;5093272;28;20028;-58
2023/01/29 08:46:31;;;;;;;51.90;43.10;;;;;;;0.17;87.60;102735.78;5087342;28;20024;-57
2023/01/29 08:48:57;;;;;;;55.83;44.73;;;;;;;0.14;87.49;102727.03;5093651;28;20024;-58
2023/01/29 08:51:24;;;;;;;51.13;42.43;;;;;;;0.15;87.21;102737.53;5077357;28;20483;-58
2023/01/29 08:53:49;;;;;;;52.90;42.43;;;;;;;0.15;87.47;102731.44;5054766;28;20115;-58
2023/01/29 08:56:15;;;;;;;53.67;43.30;;;;;;;0.16;88.07;102726.19;5078150;28;20554;-58
2023/01/29 08:58:41;;;;;;;51.53;43.20;;;;;;;0.17;87.92;102732.28;5094182;28;20036;-58
2023/01/29 09:01:12;;;;;;;54.03;44.07;;;;;;;0.20;87.35;102733.19;5082713;28;20020;-58
2023/01/29 09:03:42;;;;;;;52.20;42.13;;;;;;;0.17;87.18;102727.94;5089204;28;20024;-58
2023/01/29 09:06:08;;;;;;;55.50;42.73;;;;;;;0.24;87.14;102731.50;5091444;28;20939;-58
2023/01/29 09:08:34;;;;;;;53.20;42.07;;;;;;;0.23;87.15;102741.06;5072855;28;20481;-58
2023/01/29 09:10:59;;;;;;;53.00;42.37;;;;;;;0.30;87.44;102741.16;5072908;28;20070;-58
2023/01/29 09:13:25;;;;;;;51.73;41.20;;;;;;;0.28;87.11;102735.91;5081140;28;20030;-58
2023/01/29 09:15:51;;;;;;;50.87;40.43;;;;;;;0.25;86.45;102729.78;5091870;28;20050;-58
2023/01/29 09:18:16;;;;;;;53.80;40.90;;;;;;;0.32;86.72;102735.06;5093071;28;20476;-57
2023/01/29 09:20:42;;;;;;;48.97;39.50;;;;;;;0.28;86.73;102717.59;5067694;28;20028;-58
2023/01/29 09:23:09;;;;;;;49.53;40.67;;;;;;;0.35;86.53;102724.63;5072125;28;20113;-58
2023/01/29 09:25:36;;;;;;;50.93;40.87;;;;;;;0.36;86.33;102725.53;5072390;28;20028;-58
2023/01/29 09:28:01;;;;;;;48.37;40.07;;;;;;;0.41;85.91;102727.31;5071881;28;20039;-58
2023/01/29 09:30:27;;;;;;;48.47;40.03;;;;;;;0.40;86.51;102725.56;5072622;28;20111;-58
2023/01/29 09:32:52;;;;;;;47.53;40.80;;;;;;;0.42;86.42;102715.97;5075044;28;20387;-59
2023/01/29 09:35:18;;;;;;;48.53;39.73;;;;;;;0.41;86.44;102714.25;5054535;28;20112;-58
2023/01/29 09:37:47;;;;;;;49.70;40.17;;;;;;;0.46;85.81;102724.72;5072161;28;20028;-59
2023/01/29 09:40:25;;;;;;;45.57;38.13;;;;;;;0.42;86.02;102712.50;5054139;28;20056;-58
2023/01/29 09:42:58;;;;;;;49.90;41.13;;;;;;;0.52;85.90;102719.56;5084886;28;20480;-58
2023/01/29 09:45:26;;;;;;;50.60;39.47;;;;;;;0.56;85.88;102718.72;5092529;28;20107;-58
2023/01/29 09:47:54;;;;;;;47.53;40.50;;;;;;;0.56;86.05;102717.81;5092226;28;20028;-58
2023/01/29 09:50:43;;;;;;;47.73;39.43;;;;;;;0.56;86.46;102704.75;5074213;28;20038;-59
2023/01/29 09:53:21;;;;;;;47.80;40.00;;;;;;;0.63;85.80;102717.91;5074627;28;20027;-59
2023/01/29 09:55:58;;;;;;;50.17;38.70;;;;;;;0.62;85.44;102710.06;5080765;28;20023;-58
2023/01/29 09:58:34;;;;;;;48.50;39.13;;;;;;;0.68;85.47;102708.34;5071949;28;20109;-59
2023/01/29 10:01:31;;;;;;;44.67;37.33;;;;;;;0.72;85.72;102711.00;5061398;28;20041;-58
2023/01/29 10:04:18;;;;;;;49.33;37.93;;;;;;;0.68;85.15;102718.81;5072035;28;20094;-59
2023/01/29 10:06:55;;;;;;;47.53;37.60;;;;;;;0.72;85.18;102724.97;5062199;28;20037;-59
2023/01/29 10:09:42;;;;;;;46.87;37.97;;;;;;;0.75;85.65;102724.13;5084427;28;20023;-59
2023/01/29 10:12:29;;;;;;;47.50;37.47;;;;;;;0.81;85.09;102719.78;5077420;28;20488;-58
2023/01/29 10:15:23;;;;;;;47.60;38.23;;;;;;;0.79;84.65;102726.75;5058953;28;20060;-59
2023/01/29 10:18:12;;;;;;;49.20;37.87;;;;;;;0.81;84.36;102719.78;5069824;28;20788;-59
2023/01/29 10:20:39;;;;;;;;;;;;;;;0.88;84.74;102719.00;5059288;28;20146;-59
2023/01/29 10:23:31;;;;;;;48.50;39.10;;;;;;;0.91;84.53;102728.59;5053559;28;19916;-59
2023/01/29 10:25:56;;;;;;;46.93;37.67;;;;;;;0.89;84.19;102727.72;5071926;28;20028;-59
2023/01/29 10:28:46;;;;;;;45.70;36.90;;;;;;;0.94;84.51;102714.63;5053170;28;20481;-59
2023/01/29 10:31:19;;;;;;;46.40;36.13;;;;;;;0.93;83.82;102716.38;5081909;28;20463;-59
2023/01/29 10:33:50;;;;;;;45.90;36.07;;;;;;;0.99;84.26;102723.41;5073568;28;20055;-59
2023/01/29 10:36:56;;;;;;;46.47;36.90;;;;;;;1.01;84.03;102719.94;5091619;28;20016;-59
2023/01/29 10:39:24;;;;;;;43.07;36.17;;;;;;;1.02;83.37;102713.81;5009692;28;20501;-58
2023/01/29 10:42:04;;;;;;;46.03;36.67;;;;;;;1.07;83.31;102706.88;5076009;28;20036;-58
2023/01/29 10:44:48;;;;;;;43.60;36.60;;;;;;;1.14;83.99;102707.78;5091245;28;20070;-58
2023/01/29 10:47:35;;;;;;;44.50;36.60;;;;;;;1.17;83.32;102699.94;5092693;28;20036;-58
2023/01/29 10:50:03;;;;;;;42.23;34.37;;;;;;;1.19;82.71;102697.34;5054764;28;20028;-58
2023/01/29 10:52:54;;;;;;;46.27;35.37;;;;;;;1.22;83.20;102697.38;5057547;28;20052;-58
2023/01/29 10:55:57;;;;;;;42.17;33.73;;;;;;;1.27;82.67;102693.91;5030359;28;20477;-58
2023/01/29 10:58:53;;;;;;;41.80;32.53;;;;;;;1.31;82.37;102694.78;5075446;28;20032;-59
2023/01/29 11:01:19;;;;;;;39.83;32.67;;;;;;;1.34;82.14;102692.19;5091016;28;20478;-58
2023/01/29 11:03:45;;;;;;;40.33;34.73;;;;;;;1.32;81.75;102679.09;5093168;28;20051;-58
2023/01/29 11:06:24;;;;;;;40.10;32.63;;;;;;;1.40;82.25;102680.84;5081417;28;20028;-58
2023/01/29 11:09:09;;;;;;;40.78;32.03;;;;;;;1.42;81.85;102672.13;5076409;28;20051;-58
2023/01/29 11:12:06;;;;;;;35.83;29.97;;;;;;;1.50;81.54;102673.03;5077223;28;20036;-58
2023/01/29 11:14:41;;;;;;;36.23;31.17;;;;;;;1.51;80.82;102669.53;5094872;28;20044;-58
2023/01/29 11:17:17;;;;;;;38.47;31.03;;;;;;;1.51;80.70;102655.56;5095837;28;20077;-58
2023/01/29 11:19:45;;;;;;;37.33;31.70;;;;;;;1.54;80.60;102658.19;5090086;28;20075;-58
2023/01/29 11:22:15;;;;;;;37.00;31.30;;;;;;;1.57;80.78;102645.09;5082450;28;20516;-58
2023/01/29 11:24:43;;;;;;;36.92;30.27;;;;;;;1.58;80.52;102633.72;5076752;28;20100;-58
2023/01/29 11:27:28;;;;;;;38.77;32.00;;;;;;;1.60;79.69;102624.13;5060539;28;20445;-58
2023/01/29 11:29:55;;;;;;;39.67;31.20;;;;;;;1.52;79.87;102618.84;5096782;28;20043;-58
2023/01/29 11:32:20;;;;;;;39.07;31.63;;;;;;;1.62;80.13;102622.38;5091024;28;20029;-58
2023/01/29 11:35:03;;;;;;;37.35;31.77;;;;;;;1.65;79.92;102614.53;5097620;28;20024;-58
2023/01/29 11:37:41;;;;;;;40.17;32.03;;;;;;;1.50;79.83;102583.00;5074719;28;20028;-58
2023/01/29 11:40:18;;;;;;;35.87;30.07;;;;;;;1.69;79.74;102610.16;5083230;28;20020;-58
2023/01/29 11:42:48;;;;;;;36.93;32.53;;;;;;;1.72;79.36;102599.66;5094847;28;20065;-58
2023/01/29 11:45:19;;;;;;;37.35;30.33;;;;;;;1.73;79.12;102604.91;5076053;28;20024;-58
2023/01/29 11:47:50;;;;;;;35.03;30.77;;;;;;;1.72;78.89;102591.81;5074457;28;20035;-58
2023/01/29 11:50:33;;;;;;;38.45;30.83;;;;;;;1.81;79.57;102586.56;5082916;28;20038;-58
2023/01/29 11:53:00;;;;;;;37.03;32.22;;;;;;;1.78;78.84;102586.56;5063908;28;20016;-58
2023/01/29 11:55:33;;;;;;;38.20;33.08;;;;;;;1.80;79.45;102580.44;5094883;28;20024;-58
2023/01/29 11:58:04;;;;;;;35.72;31.42;;;;;;;1.85;79.08;102571.69;5073835;28;20150;-58
2023/01/29 12:00:34;;;;;;;36.47;31.33;;;;;;;1.84;78.53;102552.47;5082600;28;20427;-58